Tuesday, June 19, 2018, 12:49 AM EDT
Back to Local

KBVY, Beverly Municipal Airport

Location: Danvers, MA, United States Lat: 42.583
Local Time: 12:49 AM EDT ( 4:49 GMT) Lon: -70.917
Time Zone: US/Eastern Elev: 108 ft

Show me the last for .
Show Decoded

2018-06-18 23:53 METAR KBVY 190353Z AUTO 24010KT 10SM CLR 23/21 A2964 RMK AO2 SLP030 T02280211 =
2018-06-18 22:53 METAR KBVY 190253Z AUTO 22010KT 10SM FEW095 FEW120 23/21 A2967 RMK AO2 RAE08
                 SLP041 P0000 60010 T02280211 56021 =
2018-06-18 21:53 METAR KBVY 190153Z AUTO 22011KT 10SM -RA FEW055 FEW070 BKN110 23/22 A2970 RMK
                 AO2 SLP052 P0010 T02280217 =
2018-06-18 21:25 METAR KBVY 190125Z AUTO 21011KT 6SM -RA BR FEW048 SCT060 OVC100 23/22 A2971 RMK
                 AO2 PRESFR P0010 T02330222 =
2018-06-18 21:17 METAR KBVY 190117Z AUTO 23014G24KT 2 1/2SM -RA BR SCT046 BKN060 BKN095 23/22
                 A2972 RMK AO2 P0009 T02330222 =
2018-06-18 20:53 METAR KBVY 190053Z 19008KT 10SM -RA FEW120 23/22 A2970 RMK AO2 LTG DSNT W
                 RAE08B51 SLP052 P0000 T02330217 =
2018-06-18 19:53 METAR KBVY 182353Z COR 20003KT 3SM -RA BR FEW060 BKN110 23/23 A2973 RMK AO2 PK
                 WND 28030/2307 WSHFT 2240 LTG DSNT NE-SE RAB2256 TSB12E35 SLP063 P0039 60039
                 T02280228 10311 20228 50012 =
2018-06-18 19:41 METAR KBVY 182341Z 22005KT 7SM -RA FEW038 SCT048 BKN120 23/23 A2975 RMK AO2 PK
                 WND 28030/2307 WSHFT 2240 LTG DSNT E-S RAB2256 TSB12E35 TS OHD MOV SE OCNL
                 LTGCGCC P0036 T02280228 =
2018-06-18 19:33 METAR KBVY 182333Z 19007KT 3SM TSRA BR SCT038 BKN050 OVC120 23/23 A2976 RMK AO2
                 PK WND 28030/2307 WSHFT 2240 LTG DSNT ALQDS RAB2256 TSB12 TS OHD MOV SE OCNL
                 LTGCGCC P0035 T02280228 =
2018-06-18 19:27 METAR KBVY 182327Z 24008KT 1 1/4SM TSRA BR SCT032 BKN046 OVC075 23/22 A2977 RMK
                 AO2 PK WND 28030/2307 WSHFT 2240 LTG DSNT ALQDS RAB2256 TSB12 TS OHD MOV SE OCNL
                 LTGCGCC P0033 T02330222 =
2018-06-18 19:19 METAR KBVY 182319Z 25018G26KT 2 1/2SM TSRA BR FEW029 BKN050 OVC060 23/22 A2979
                 RMK AO2 PK WND 28030/2307 WSHFT 2240 LTG DSNT ALQDS RAB2256 TSB12 TS OHD MOV SE
                 OCNL LTGCGCC P0018 T02330222 =
2018-06-18 19:12 METAR KBVY 182312Z 29016G30KT 2SM +TSRA BR FEW022 BKN050 OVC070 23/21 A2978 RMK
                 AO2 PK WND 28030/2307 WSHFT 2240 LTG DSNT NE AND SW AND W RAB2256 TSB12 TS N MOV
                 SE P0014 T02330211 =
2018-06-18 19:00 METAR KBVY 182300Z 30014G28KT 6SM VCTS -RA FEW039 BKN047 OVC100 26/21 A2977 RMK
                 AO2 PK WND 31028/2256 WSHFT 2240 LTG DSNT W-NE RAB2256 TS N MOV SE P0002
                 T02610206 =
2018-06-18 18:53 METAR KBVY 182253Z 32018G27KT 10SM VCTS FEW039 SCT060 BKN075 28/21 A2977 RMK AO2
                 PK WND 32027/2251 WSHFT 2239 LTG DSNT W-N PRESRR SLP075 TS NW MOV E T02830206 =
2018-06-18 18:48 METAR KBVY 182248Z 25011G27KT 10SM VCTS FEW060 SCT075 BKN110 29/21 A2974 RMK AO2
                 PK WND 24027/2241 LTG DSNT W-N PRESRR TS NW MOV E =
2018-06-18 17:53 METAR KBVY 182153Z 22016G23KT 10SM CLR 30/21 A2970 RMK AO2 SLP051 T03000211 =
2018-06-18 16:53 METAR KBVY 182053Z 18013KT 10SM CLR 29/21 A2971 RMK AO2 SLP056 T02890211 58031 =
2018-06-18 15:53 METAR KBVY 181953Z 18008KT 10SM SCT150 BKN250 31/22 A2975 RMK AO2 SLP067
                 T03060222 =
2018-06-18 14:53 METAR KBVY 181853Z 21016G23KT 10SM SCT150 BKN250 29/21 A2978 RMK AO2 SLP078
                 T02940211 =
2018-06-18 13:53 METAR KBVY 181753Z 22013G19KT 10SM CLR 29/21 A2981 RMK AO2 SLP088 T02940211
                 10306 20222 58024 =
2018-06-18 12:53 METAR KBVY 181653Z 22014G20KT 10SM CLR 29/21 A2984 RMK AO2 SLP099 T02940211 =
2018-06-18 11:53 METAR KBVY 181553Z 23016G21KT 10SM SCT150 BKN250 28/20 A2987 RMK AO2 SLP108
                 T02830200 =
2018-06-18 10:53 METAR KBVY 181453Z 23014KT 10SM CLR 28/19 A2988 RMK AO2 SLP112 T02830194 58019 =
2018-06-18 09:53 METAR KBVY 181353Z 23013KT 10SM SCT150 BKN250 27/19 A2990 RMK AO2 SLP119
                 T02670189 =
2018-06-18 08:53 METAR KBVY 181253Z 23007KT 10SM SCT150 BKN250 24/18 A2992 RMK AO2 SLP125
                 T02440178 =
2018-06-18 07:53 METAR KBVY 181153Z 22008KT 10SM SCT150 BKN250 23/16 A2993 RMK AO2 SLP130
                 T02280161 10228 20183 58015 =
2018-06-18 06:53 METAR KBVY 181053Z 22007KT 10SM BKN150 BKN250 22/15 A2995 RMK AO2 SLP135
                 T02170150 =
2018-06-18 05:53 METAR KBVY 180953Z AUTO 22008KT 10SM CLR 22/14 A2996 RMK AO2 SLP141 T02170139 =
2018-06-18 04:53 METAR KBVY 180853Z AUTO 21007KT 10SM CLR 20/13 A2998 RMK AO2 SLP145 T02000133
                 56015 =
2018-06-18 03:53 METAR KBVY 180753Z AUTO 20005KT 10SM CLR 19/13 A2998 RMK AO2 SLP148 T01890133 =
2018-06-18 02:53 METAR KBVY 180653Z AUTO 20003KT 10SM CLR 19/13 A3000 RMK AO2 SLP153 T01890128 =
2018-06-18 01:53 METAR KBVY 180553Z AUTO 22004KT 10SM CLR 18/13 A3002 RMK AO2 SLP160 T01830128
                 10200 20172 56003 =
2018-06-18 00:53 METAR KBVY 180453Z AUTO 19004KT 10SM CLR 18/13 A3002 RMK AO2 SLP160 T01830128
                 402780122 =

Support USWX by starting your Amazon purchase here.